sensor_id;sensor_type;location;lat;lon;timestamp;temperature;humidity
39925;DHT22;25592;49.986;11.618;2023-05-06T00:01:30;17.50;99.50
39925;DHT22;25592;49.986;11.618;2023-05-06T00:04:16;17.50;99.80
39925;DHT22;25592;49.986;11.618;2023-05-06T00:07:01;17.50;99.30
39925;DHT22;25592;49.986;11.618;2023-05-06T00:09:47;17.50;99.10
39925;DHT22;25592;49.986;11.618;2023-05-06T00:12:32;17.50;99.60
39925;DHT22;25592;49.986;11.618;2023-05-06T00:15:18;17.50;99.40
39925;DHT22;25592;49.986;11.618;2023-05-06T00:18:03;17.50;99.60
39925;DHT22;25592;49.986;11.618;2023-05-06T00:20:49;17.40;99.90
39925;DHT22;25592;49.986;11.618;2023-05-06T00:23:34;17.40;99.60
39925;DHT22;25592;49.986;11.618;2023-05-06T00:26:19;17.50;99.30
39925;DHT22;25592;49.986;11.618;2023-05-06T00:29:05;17.50;99.30
39925;DHT22;25592;49.986;11.618;2023-05-06T00:31:50;17.50;99.40
39925;DHT22;25592;49.986;11.618;2023-05-06T00:34:36;17.50;99.50
39925;DHT22;25592;49.986;11.618;2023-05-06T00:37:21;17.40;99.50
39925;DHT22;25592;49.986;11.618;2023-05-06T00:40:07;17.40;99.40
39925;DHT22;25592;49.986;11.618;2023-05-06T00:42:53;17.30;99.30
39925;DHT22;25592;49.986;11.618;2023-05-06T00:45:38;17.30;99.70
39925;DHT22;25592;49.986;11.618;2023-05-06T00:48:24;17.20;99.50
39925;DHT22;25592;49.986;11.618;2023-05-06T00:51:10;17.30;99.40
39925;DHT22;25592;49.986;11.618;2023-05-06T00:53:56;17.30;99.10
39925;DHT22;25592;49.986;11.618;2023-05-06T00:56:41;17.30;99.30
39925;DHT22;25592;49.986;11.618;2023-05-06T00:59:27;17.30;99.10
39925;DHT22;25592;49.986;11.618;2023-05-06T01:02:13;17.30;98.90
39925;DHT22;25592;49.986;11.618;2023-05-06T01:04:59;17.20;98.90
39925;DHT22;25592;49.986;11.618;2023-05-06T01:08:05;17.20;99.10
39925;DHT22;25592;49.986;11.618;2023-05-06T01:11:13;17.10;98.80
39925;DHT22;25592;49.986;11.618;2023-05-06T01:17:10;17.10;98.60
39925;DHT22;25592;49.986;11.618;2023-05-06T01:19:57;17.00;98.70
39925;DHT22;25592;49.986;11.618;2023-05-06T01:22:43;17.10;99.00
39925;DHT22;25592;49.986;11.618;2023-05-06T01:25:29;17.10;98.70
39925;DHT22;25592;49.986;11.618;2023-05-06T01:28:16;17.10;98.80
39925;DHT22;25592;49.986;11.618;2023-05-06T01:31:04;17.00;99.20
39925;DHT22;25592;49.986;11.618;2023-05-06T01:34:08;17.00;99.40
39925;DHT22;25592;49.986;11.618;2023-05-06T01:37:09;17.10;99.50
39925;DHT22;25592;49.986;11.618;2023-05-06T01:39:59;17.00;99.50
39925;DHT22;25592;49.986;11.618;2023-05-06T01:42:46;17.00;99.90
39925;DHT22;25592;49.986;11.618;2023-05-06T01:45:34;16.90;99.90
39925;DHT22;25592;49.986;11.618;2023-05-06T01:48:25;16.90;99.90
39925;DHT22;25592;49.986;11.618;2023-05-06T01:51:12;16.90;99.90
39925;DHT22;25592;49.986;11.618;2023-05-06T01:53:57;16.80;99.90
39925;DHT22;25592;49.986;11.618;2023-05-06T01:56:43;16.80;99.90
39925;DHT22;25592;49.986;11.618;2023-05-06T01:59:28;16.80;99.90
39925;DHT22;25592;49.986;11.618;2023-05-06T02:02:14;16.80;99.90
39925;DHT22;25592;49.986;11.618;2023-05-06T02:04:59;16.80;99.90
39925;DHT22;25592;49.986;11.618;2023-05-06T02:07:45;16.80;99.90
39925;DHT22;25592;49.986;11.618;2023-05-06T02:10:30;16.80;99.90
39925;DHT22;25592;49.986;11.618;2023-05-06T02:13:17;16.70;99.90
39925;DHT22;25592;49.986;11.618;2023-05-06T02:16:02;16.80;99.90
39925;DHT22;25592;49.986;11.618;2023-05-06T02:18:48;16.90;99.90
39925;DHT22;25592;49.986;11.618;2023-05-06T02:21:33;16.90;99.90
39925;DHT22;25592;49.986;11.618;2023-05-06T02:24:19;16.90;99.90
39925;DHT22;25592;49.986;11.618;2023-05-06T02:27:04;16.80;99.90
39925;DHT22;25592;49.986;11.618;2023-05-06T02:29:50;16.80;99.90
39925;DHT22;25592;49.986;11.618;2023-05-06T02:32:36;16.80;99.90
39925;DHT22;25592;49.986;11.618;2023-05-06T02:35:21;16.90;99.90
39925;DHT22;25592;49.986;11.618;2023-05-06T02:38:06;16.80;99.90
39925;DHT22;25592;49.986;11.618;2023-05-06T02:40:52;16.80;99.90
39925;DHT22;25592;49.986;11.618;2023-05-06T02:43:37;16.80;99.90
39925;DHT22;25592;49.986;11.618;2023-05-06T02:46:22;16.80;99.90
39925;DHT22;25592;49.986;11.618;2023-05-06T02:49:08;16.80;99.90
39925;DHT22;25592;49.986;11.618;2023-05-06T02:51:53;16.80;99.90
39925;DHT22;25592;49.986;11.618;2023-05-06T02:54:39;16.80;99.90
39925;DHT22;25592;49.986;11.618;2023-05-06T02:57:24;16.80;99.90
39925;DHT22;25592;49.986;11.618;2023-05-06T03:00:10;16.80;99.90
39925;DHT22;25592;49.986;11.618;2023-05-06T03:02:56;16.80;99.90
39925;DHT22;25592;49.986;11.618;2023-05-06T03:05:42;16.80;99.90
39925;DHT22;25592;49.986;11.618;2023-05-06T03:08:27;16.80;99.90
39925;DHT22;25592;49.986;11.618;2023-05-06T03:11:13;16.80;99.90
39925;DHT22;25592;49.986;11.618;2023-05-06T03:13:58;16.80;99.90
39925;DHT22;25592;49.986;11.618;2023-05-06T03:16:43;16.90;99.90
39925;DHT22;25592;49.986;11.618;2023-05-06T03:19:29;16.80;99.90
39925;DHT22;25592;49.986;11.618;2023-05-06T03:22:14;16.80;99.90
39925;DHT22;25592;49.986;11.618;2023-05-06T03:24:59;16.80;99.90
39925;DHT22;25592;49.986;11.618;2023-05-06T03:27:45;16.90;99.90
39925;DHT22;25592;49.986;11.618;2023-05-06T03:30:31;16.90;99.90
39925;DHT22;25592;49.986;11.618;2023-05-06T03:33:16;16.90;99.90
39925;DHT22;25592;49.986;11.618;2023-05-06T03:36:01;16.90;99.90
39925;DHT22;25592;49.986;11.618;2023-05-06T03:38:47;16.90;99.90
39925;DHT22;25592;49.986;11.618;2023-05-06T03:41:32;16.90;99.90
39925;DHT22;25592;49.986;11.618;2023-05-06T03:44:18;16.90;99.90
39925;DHT22;25592;49.986;11.618;2023-05-06T03:47:03;16.90;99.90
39925;DHT22;25592;49.986;11.618;2023-05-06T03:49:48;16.90;99.90
39925;DHT22;25592;49.986;11.618;2023-05-06T03:52:34;16.80;99.90
39925;DHT22;25592;49.986;11.618;2023-05-06T03:55:19;16.80;99.90
39925;DHT22;25592;49.986;11.618;2023-05-06T03:58:05;16.80;99.90
39925;DHT22;25592;49.986;11.618;2023-05-06T04:00:50;16.80;99.90
39925;DHT22;25592;49.986;11.618;2023-05-06T04:03:36;16.90;99.90
39925;DHT22;25592;49.986;11.618;2023-05-06T04:06:21;16.80;99.90
39925;DHT22;25592;49.986;11.618;2023-05-06T04:09:06;16.90;99.90
39925;DHT22;25592;49.986;11.618;2023-05-06T04:11:52;16.90;99.90
39925;DHT22;25592;49.986;11.618;2023-05-06T04:14:38;16.90;99.90
39925;DHT22;25592;49.986;11.618;2023-05-06T04:17:23;16.90;99.90
39925;DHT22;25592;49.986;11.618;2023-05-06T04:20:09;16.90;99.90
39925;DHT22;25592;49.986;11.618;2023-05-06T04:22:55;16.90;99.90
39925;DHT22;25592;49.986;11.618;2023-05-06T04:25:41;16.80;99.90
39925;DHT22;25592;49.986;11.618;2023-05-06T04:28:26;16.80;99.90
39925;DHT22;25592;49.986;11.618;2023-05-06T04:31:12;16.80;99.90
39925;DHT22;25592;49.986;11.618;2023-05-06T04:33:58;16.80;99.90
39925;DHT22;25592;49.986;11.618;2023-05-06T04:36:43;16.80;99.90
39925;DHT22;25592;49.986;11.618;2023-05-06T04:39:29;16.80;99.90
39925;DHT22;25592;49.986;11.618;2023-05-06T04:42:16;16.80;99.90
39925;DHT22;25592;49.986;11.618;2023-05-06T04:45:01;16.90;99.90
39925;DHT22;25592;49.986;11.618;2023-05-06T04:47:47;16.90;99.90
39925;DHT22;25592;49.986;11.618;2023-05-06T04:50:33;16.90;99.90
39925;DHT22;25592;49.986;11.618;2023-05-06T04:53:18;17.00;99.90
39925;DHT22;25592;49.986;11.618;2023-05-06T04:56:04;16.90;99.90
39925;DHT22;25592;49.986;11.618;2023-05-06T04:58:49;16.90;99.90
39925;DHT22;25592;49.986;11.618;2023-05-06T05:01:34;16.90;99.90
39925;DHT22;25592;49.986;11.618;2023-05-06T05:04:20;16.90;99.90
39925;DHT22;25592;49.986;11.618;2023-05-06T05:07:05;16.90;99.90
39925;DHT22;25592;49.986;11.618;2023-05-06T05:09:51;17.00;99.90
39925;DHT22;25592;49.986;11.618;2023-05-06T05:12:36;17.00;99.90
39925;DHT22;25592;49.986;11.618;2023-05-06T05:15:22;16.80;99.90
39925;DHT22;25592;49.986;11.618;2023-05-06T05:18:07;16.80;99.90
39925;DHT22;25592;49.986;11.618;2023-05-06T05:20:53;16.80;99.90
39925;DHT22;25592;49.986;11.618;2023-05-06T05:23:38;16.90;99.90
39925;DHT22;25592;49.986;11.618;2023-05-06T05:26:24;16.90;99.90
39925;DHT22;25592;49.986;11.618;2023-05-06T05:29:09;16.80;99.90
39925;DHT22;25592;49.986;11.618;2023-05-06T05:31:55;16.80;99.90
39925;DHT22;25592;49.986;11.618;2023-05-06T05:34:40;16.90;99.90
39925;DHT22;25592;49.986;11.618;2023-05-06T05:37:25;16.90;99.90
39925;DHT22;25592;49.986;11.618;2023-05-06T05:40:11;16.90;99.90
39925;DHT22;25592;49.986;11.618;2023-05-06T05:42:56;16.70;99.90
39925;DHT22;25592;49.986;11.618;2023-05-06T05:45:42;16.80;99.90
39925;DHT22;25592;49.986;11.618;2023-05-06T05:48:27;16.80;99.90
39925;DHT22;25592;49.986;11.618;2023-05-06T05:51:13;16.90;99.90
39925;DHT22;25592;49.986;11.618;2023-05-06T05:53:58;16.90;99.90
39925;DHT22;25592;49.986;11.618;2023-05-06T05:56:43;17.00;99.90
39925;DHT22;25592;49.986;11.618;2023-05-06T05:59:29;17.00;99.90
39925;DHT22;25592;49.986;11.618;2023-05-06T06:02:15;16.90;99.90
39925;DHT22;25592;49.986;11.618;2023-05-06T06:05:01;17.00;99.90
39925;DHT22;25592;49.986;11.618;2023-05-06T06:07:46;17.00;99.90
39925;DHT22;25592;49.986;11.618;2023-05-06T06:10:32;16.90;99.90
39925;DHT22;25592;49.986;11.618;2023-05-06T06:13:17;16.90;99.90
39925;DHT22;25592;49.986;11.618;2023-05-06T06:16:03;16.90;99.90
39925;DHT22;25592;49.986;11.618;2023-05-06T06:18:49;16.90;99.90
39925;DHT22;25592;49.986;11.618;2023-05-06T06:21:34;16.80;99.90
39925;DHT22;25592;49.986;11.618;2023-05-06T06:24:20;16.80;99.90
39925;DHT22;25592;49.986;11.618;2023-05-06T06:27:05;16.90;99.90
39925;DHT22;25592;49.986;11.618;2023-05-06T06:29:51;17.00;99.90
39925;DHT22;25592;49.986;11.618;2023-05-06T06:32:46;16.80;99.90
39925;DHT22;25592;49.986;11.618;2023-05-06T06:35:32;16.80;99.90
39925;DHT22;25592;49.986;11.618;2023-05-06T06:38:18;16.80;99.90
39925;DHT22;25592;49.986;11.618;2023-05-06T06:41:04;16.80;99.90
39925;DHT22;25592;49.986;11.618;2023-05-06T06:43:49;16.90;99.90
39925;DHT22;25592;49.986;11.618;2023-05-06T06:46:35;16.80;99.90
39925;DHT22;25592;49.986;11.618;2023-05-06T06:49:20;16.90;99.90
39925;DHT22;25592;49.986;11.618;2023-05-06T06:52:06;16.90;99.90
39925;DHT22;25592;49.986;11.618;2023-05-06T06:54:52;16.90;99.90
39925;DHT22;25592;49.986;11.618;2023-05-06T06:57:38;17.00;99.90
39925;DHT22;25592;49.986;11.618;2023-05-06T07:00:24;17.00;99.90
39925;DHT22;25592;49.986;11.618;2023-05-06T07:03:09;17.10;99.90
39925;DHT22;25592;49.986;11.618;2023-05-06T07:05:55;17.20;99.90
39925;DHT22;25592;49.986;11.618;2023-05-06T07:08:40;17.20;99.90
39925;DHT22;25592;49.986;11.618;2023-05-06T07:11:25;17.30;99.90
39925;DHT22;25592;49.986;11.618;2023-05-06T07:14:12;17.40;99.90
39925;DHT22;25592;49.986;11.618;2023-05-06T07:16:57;17.30;99.90
39925;DHT22;25592;49.986;11.618;2023-05-06T07:19:45;17.20;99.90
39925;DHT22;25592;49.986;11.618;2023-05-06T07:22:30;17.30;99.90
39925;DHT22;25592;49.986;11.618;2023-05-06T07:25:16;17.40;99.90
39925;DHT22;25592;49.986;11.618;2023-05-06T07:28:01;17.50;99.90
39925;DHT22;25592;49.986;11.618;2023-05-06T07:30:47;17.50;99.90
39925;DHT22;25592;49.986;11.618;2023-05-06T07:33:35;17.50;99.90
39925;DHT22;25592;49.986;11.618;2023-05-06T07:36:20;17.70;99.90
39925;DHT22;25592;49.986;11.618;2023-05-06T07:39:06;17.70;99.90
39925;DHT22;25592;49.986;11.618;2023-05-06T07:41:51;17.70;99.90
39925;DHT22;25592;49.986;11.618;2023-05-06T07:44:37;17.70;99.90
39925;DHT22;25592;49.986;11.618;2023-05-06T07:47:29;17.70;99.90
39925;DHT22;25592;49.986;11.618;2023-05-06T07:50:16;17.70;99.90
39925;DHT22;25592;49.986;11.618;2023-05-06T07:53:01;17.70;99.90
39925;DHT22;25592;49.986;11.618;2023-05-06T07:55:48;17.70;99.90
39925;DHT22;25592;49.986;11.618;2023-05-06T07:58:33;17.60;99.90
39925;DHT22;25592;49.986;11.618;2023-05-06T08:01:19;17.80;99.90
39925;DHT22;25592;49.986;11.618;2023-05-06T08:04:04;17.80;99.90
39925;DHT22;25592;49.986;11.618;2023-05-06T08:06:50;17.80;99.90
39925;DHT22;25592;49.986;11.618;2023-05-06T08:09:36;17.70;99.90
39925;DHT22;25592;49.986;11.618;2023-05-06T08:12:21;17.90;99.90
39925;DHT22;25592;49.986;11.618;2023-05-06T08:15:07;18.10;99.90
39925;DHT22;25592;49.986;11.618;2023-05-06T08:17:53;18.10;99.90
39925;DHT22;25592;49.986;11.618;2023-05-06T08:20:40;18.20;99.90
39925;DHT22;25592;49.986;11.618;2023-05-06T08:23:26;18.40;99.90
39925;DHT22;25592;49.986;11.618;2023-05-06T08:26:11;18.40;99.90
39925;DHT22;25592;49.986;11.618;2023-05-06T08:28:56;18.50;99.40
39925;DHT22;25592;49.986;11.618;2023-05-06T08:31:43;18.70;98.90
39925;DHT22;25592;49.986;11.618;2023-05-06T08:34:28;18.70;98.70
39925;DHT22;25592;49.986;11.618;2023-05-06T08:37:14;18.70;98.00
39925;DHT22;25592;49.986;11.618;2023-05-06T08:39:59;18.70;98.20
39925;DHT22;25592;49.986;11.618;2023-05-06T08:42:45;18.50;98.50
39925;DHT22;25592;49.986;11.618;2023-05-06T08:45:32;18.40;98.40
39925;DHT22;25592;49.986;11.618;2023-05-06T08:48:17;18.50;98.40
39925;DHT22;25592;49.986;11.618;2023-05-06T08:51:03;18.50;98.60
39925;DHT22;25592;49.986;11.618;2023-05-06T08:53:48;18.60;98.20
39925;DHT22;25592;49.986;11.618;2023-05-06T08:56:37;18.70;98.20
39925;DHT22;25592;49.986;11.618;2023-05-06T08:59:24;18.90;98.10
39925;DHT22;25592;49.986;11.618;2023-05-06T09:02:11;19.30;97.50
39925;DHT22;25592;49.986;11.618;2023-05-06T09:04:56;19.50;96.60
39925;DHT22;25592;49.986;11.618;2023-05-06T09:07:42;19.20;96.30
39925;DHT22;25592;49.986;11.618;2023-05-06T09:10:31;19.30;96.40
39925;DHT22;25592;49.986;11.618;2023-05-06T09:13:18;19.60;96.90
39925;DHT22;25592;49.986;11.618;2023-05-06T09:16:06;19.80;95.50
39925;DHT22;25592;49.986;11.618;2023-05-06T09:18:51;20.10;95.60
39925;DHT22;25592;49.986;11.618;2023-05-06T09:21:39;20.30;95.80
39925;DHT22;25592;49.986;11.618;2023-05-06T09:24:25;20.20;94.40
39925;DHT22;25592;49.986;11.618;2023-05-06T09:27:10;20.30;93.80
39925;DHT22;25592;49.986;11.618;2023-05-06T09:30:04;20.50;94.60
39925;DHT22;25592;49.986;11.618;2023-05-06T09:32:51;20.80;94.80
39925;DHT22;25592;49.986;11.618;2023-05-06T09:35:42;20.80;93.40
39925;DHT22;25592;49.986;11.618;2023-05-06T09:38:28;20.70;93.70
39925;DHT22;25592;49.986;11.618;2023-05-06T09:41:13;20.70;93.70
39925;DHT22;25592;49.986;11.618;2023-05-06T09:43:59;20.50;93.80
39925;DHT22;25592;49.986;11.618;2023-05-06T09:46:45;20.50;93.60
39925;DHT22;25592;49.986;11.618;2023-05-06T09:49:31;20.60;93.60
39925;DHT22;25592;49.986;11.618;2023-05-06T09:52:17;20.40;93.50
39925;DHT22;25592;49.986;11.618;2023-05-06T09:55:05;20.60;92.90
39925;DHT22;25592;49.986;11.618;2023-05-06T09:57:51;20.50;91.50
39925;DHT22;25592;49.986;11.618;2023-05-06T10:00:37;20.70;91.90
39925;DHT22;25592;49.986;11.618;2023-05-06T10:03:24;21.10;91.90
39925;DHT22;25592;49.986;11.618;2023-05-06T10:06:11;21.40;91.00
39925;DHT22;25592;49.986;11.618;2023-05-06T10:08:56;21.40;90.70
39925;DHT22;25592;49.986;11.618;2023-05-06T10:11:44;21.70;91.50
39925;DHT22;25592;49.986;11.618;2023-05-06T10:14:31;21.90;90.10
39925;DHT22;25592;49.986;11.618;2023-05-06T10:17:17;22.20;87.00
39925;DHT22;25592;49.986;11.618;2023-05-06T10:20:05;22.50;87.20
39925;DHT22;25592;49.986;11.618;2023-05-06T10:26:14;22.90;84.30
39925;DHT22;25592;49.986;11.618;2023-05-06T10:29:00;22.40;86.20
39925;DHT22;25592;49.986;11.618;2023-05-06T10:31:53;22.80;87.80
39925;DHT22;25592;49.986;11.618;2023-05-06T10:34:52;23.00;87.80
39925;DHT22;25592;49.986;11.618;2023-05-06T10:37:39;23.40;85.60
39925;DHT22;25592;49.986;11.618;2023-05-06T10:40:25;23.60;86.30
39925;DHT22;25592;49.986;11.618;2023-05-06T10:46:14;23.80;84.70
39925;DHT22;25592;49.986;11.618;2023-05-06T10:52:08;23.90;83.30
39925;DHT22;25592;49.986;11.618;2023-05-06T10:54:54;23.70;83.30
39925;DHT22;25592;49.986;11.618;2023-05-06T10:57:40;23.70;82.20
39925;DHT22;25592;49.986;11.618;2023-05-06T11:00:25;23.50;83.70
39925;DHT22;25592;49.986;11.618;2023-05-06T11:03:11;23.40;82.60
39925;DHT22;25592;49.986;11.618;2023-05-06T11:05:57;23.30;81.30
39925;DHT22;25592;49.986;11.618;2023-05-06T11:08:54;23.60;82.20
39925;DHT22;25592;49.986;11.618;2023-05-06T11:12:03;23.80;82.80
39925;DHT22;25592;49.986;11.618;2023-05-06T11:14:49;24.30;83.50
39925;DHT22;25592;49.986;11.618;2023-05-06T11:17:35;24.50;80.40
39925;DHT22;25592;49.986;11.618;2023-05-06T11:20:25;24.60;80.30
39925;DHT22;25592;49.986;11.618;2023-05-06T11:23:10;24.70;78.20
39925;DHT22;25592;49.986;11.618;2023-05-06T11:25:58;24.50;76.40
39925;DHT22;25592;49.986;11.618;2023-05-06T11:28:46;23.90;79.40
39925;DHT22;25592;49.986;11.618;2023-05-06T11:31:37;24.20;81.60
39925;DHT22;25592;49.986;11.618;2023-05-06T11:37:09;24.80;79.00
39925;DHT22;25592;49.986;11.618;2023-05-06T11:39:55;24.80;77.30
39925;DHT22;25592;49.986;11.618;2023-05-06T11:42:40;24.50;78.70
39925;DHT22;25592;49.986;11.618;2023-05-06T11:45:27;24.70;78.70
39925;DHT22;25592;49.986;11.618;2023-05-06T11:48:23;25.00;72.90
39925;DHT22;25592;49.986;11.618;2023-05-06T11:51:08;25.10;73.10
39925;DHT22;25592;49.986;11.618;2023-05-06T11:54:05;25.30;73.90
39925;DHT22;25592;49.986;11.618;2023-05-06T11:56:52;25.70;75.80
39925;DHT22;25592;49.986;11.618;2023-05-06T11:59:39;25.90;74.50
39925;DHT22;25592;49.986;11.618;2023-05-06T12:02:24;26.10;72.50
39925;DHT22;25592;49.986;11.618;2023-05-06T12:05:10;26.40;71.40
39925;DHT22;25592;49.986;11.618;2023-05-06T12:07:56;26.40;71.00
39925;DHT22;25592;49.986;11.618;2023-05-06T12:10:41;26.10;68.50
39925;DHT22;25592;49.986;11.618;2023-05-06T12:13:27;25.90;68.00
39925;DHT22;25592;49.986;11.618;2023-05-06T12:16:13;25.90;70.00
39925;DHT22;25592;49.986;11.618;2023-05-06T12:19:00;25.90;69.40
39925;DHT22;25592;49.986;11.618;2023-05-06T12:21:46;25.70;68.70
39925;DHT22;25592;49.986;11.618;2023-05-06T12:24:32;26.00;71.00
39925;DHT22;25592;49.986;11.618;2023-05-06T12:27:29;26.30;69.60
39925;DHT22;25592;49.986;11.618;2023-05-06T12:30:14;26.50;69.60
39925;DHT22;25592;49.986;11.618;2023-05-06T12:33:00;26.60;70.10
39925;DHT22;25592;49.986;11.618;2023-05-06T12:35:46;26.40;69.90
39925;DHT22;25592;49.986;11.618;2023-05-06T12:38:31;26.70;69.80
39925;DHT22;25592;49.986;11.618;2023-05-06T12:41:18;26.90;66.30
39925;DHT22;25592;49.986;11.618;2023-05-06T12:44:34;27.20;67.90
39925;DHT22;25592;49.986;11.618;2023-05-06T12:47:24;27.60;66.50
39925;DHT22;25592;49.986;11.618;2023-05-06T12:50:10;27.70;65.60
39925;DHT22;25592;49.986;11.618;2023-05-06T12:52:56;27.60;67.10
39925;DHT22;25592;49.986;11.618;2023-05-06T12:55:41;27.00;64.50
39925;DHT22;25592;49.986;11.618;2023-05-06T12:58:27;26.80;66.80
39925;DHT22;25592;49.986;11.618;2023-05-06T13:01:12;26.30;63.60
39925;DHT22;25592;49.986;11.618;2023-05-06T13:03:57;26.50;66.10
39925;DHT22;25592;49.986;11.618;2023-05-06T13:06:43;26.90;66.50
39925;DHT22;25592;49.986;11.618;2023-05-06T13:09:29;26.90;65.50
39925;DHT22;25592;49.986;11.618;2023-05-06T13:12:14;26.70;64.60
39925;DHT22;25592;49.986;11.618;2023-05-06T13:14:59;26.60;62.80
39925;DHT22;25592;49.986;11.618;2023-05-06T13:17:45;26.70;64.10
39925;DHT22;25592;49.986;11.618;2023-05-06T13:20:31;26.90;64.00
39925;DHT22;25592;49.986;11.618;2023-05-06T13:23:16;27.20;62.80
39925;DHT22;25592;49.986;11.618;2023-05-06T13:26:03;26.70;63.50
39925;DHT22;25592;49.986;11.618;2023-05-06T13:28:50;26.70;63.30
39925;DHT22;25592;49.986;11.618;2023-05-06T13:31:36;26.60;66.40
39925;DHT22;25592;49.986;11.618;2023-05-06T13:34:21;26.50;66.40
39925;DHT22;25592;49.986;11.618;2023-05-06T13:37:07;26.40;67.40
39925;DHT22;25592;49.986;11.618;2023-05-06T13:39:52;26.30;68.10
39925;DHT22;25592;49.986;11.618;2023-05-06T13:42:38;26.10;67.50
39925;DHT22;25592;49.986;11.618;2023-05-06T13:45:23;25.90;63.20
39925;DHT22;25592;49.986;11.618;2023-05-06T13:48:09;25.60;66.60
39925;DHT22;25592;49.986;11.618;2023-05-06T13:50:54;25.50;68.00
39925;DHT22;25592;49.986;11.618;2023-05-06T13:53:39;25.50;63.20
39925;DHT22;25592;49.986;11.618;2023-05-06T13:56:25;25.20;63.20
39925;DHT22;25592;49.986;11.618;2023-05-06T13:59:10;25.00;63.60
39925;DHT22;25592;49.986;11.618;2023-05-06T14:01:58;25.00;63.70
39925;DHT22;25592;49.986;11.618;2023-05-06T14:04:43;25.00;64.50
39925;DHT22;25592;49.986;11.618;2023-05-06T14:07:29;25.50;64.40
39925;DHT22;25592;49.986;11.618;2023-05-06T14:10:14;25.70;65.70
39925;DHT22;25592;49.986;11.618;2023-05-06T14:12:59;26.00;65.40
39925;DHT22;25592;49.986;11.618;2023-05-06T14:15:45;25.80;61.70
39925;DHT22;25592;49.986;11.618;2023-05-06T14:18:32;25.40;61.00
39925;DHT22;25592;49.986;11.618;2023-05-06T14:21:17;25.40;61.50
39925;DHT22;25592;49.986;11.618;2023-05-06T14:24:02;25.30;62.00
39925;DHT22;25592;49.986;11.618;2023-05-06T14:26:51;24.90;61.70
39925;DHT22;25592;49.986;11.618;2023-05-06T14:29:36;24.40;61.50
39925;DHT22;25592;49.986;11.618;2023-05-06T14:32:22;24.30;63.00
39925;DHT22;25592;49.986;11.618;2023-05-06T14:35:08;24.30;62.90
39925;DHT22;25592;49.986;11.618;2023-05-06T14:37:54;24.20;62.60
39925;DHT22;25592;49.986;11.618;2023-05-06T14:40:39;24.40;63.80
39925;DHT22;25592;49.986;11.618;2023-05-06T14:43:25;24.70;64.10
39925;DHT22;25592;49.986;11.618;2023-05-06T14:46:10;24.60;63.70
39925;DHT22;25592;49.986;11.618;2023-05-06T14:48:56;25.00;63.50
39925;DHT22;25592;49.986;11.618;2023-05-06T14:51:42;25.10;62.50
39925;DHT22;25592;49.986;11.618;2023-05-06T14:54:27;25.20;63.00
39925;DHT22;25592;49.986;11.618;2023-05-06T14:57:13;25.70;63.30
39925;DHT22;25592;49.986;11.618;2023-05-06T14:59:58;25.60;64.00
39925;DHT22;25592;49.986;11.618;2023-05-06T15:02:44;25.40;67.50
39925;DHT22;25592;49.986;11.618;2023-05-06T15:05:30;25.20;68.30
39925;DHT22;25592;49.986;11.618;2023-05-06T15:08:15;24.80;68.50
39925;DHT22;25592;49.986;11.618;2023-05-06T15:11:01;24.50;69.90
39925;DHT22;25592;49.986;11.618;2023-05-06T15:13:48;24.20;70.50
39925;DHT22;25592;49.986;11.618;2023-05-06T15:16:33;24.30;70.80
39925;DHT22;25592;49.986;11.618;2023-05-06T15:19:19;24.30;70.50
39925;DHT22;25592;49.986;11.618;2023-05-06T15:22:04;24.20;69.20
39925;DHT22;25592;49.986;11.618;2023-05-06T15:24:49;23.90;70.30
39925;DHT22;25592;49.986;11.618;2023-05-06T15:27:35;23.50;69.80
39925;DHT22;25592;49.986;11.618;2023-05-06T15:30:21;23.50;70.50
39925;DHT22;25592;49.986;11.618;2023-05-06T15:33:07;23.40;71.20
39925;DHT22;25592;49.986;11.618;2023-05-06T15:35:53;23.40;71.90
39925;DHT22;25592;49.986;11.618;2023-05-06T15:41:36;23.40;71.90
39925;DHT22;25592;49.986;11.618;2023-05-06T15:44:22;23.20;71.20
39925;DHT22;25592;49.986;11.618;2023-05-06T15:47:07;23.30;72.40
39925;DHT22;25592;49.986;11.618;2023-05-06T15:49:52;23.30;71.60
39925;DHT22;25592;49.986;11.618;2023-05-06T15:52:39;23.30;72.30
39925;DHT22;25592;49.986;11.618;2023-05-06T15:55:29;23.40;72.70
39925;DHT22;25592;49.986;11.618;2023-05-06T15:58:25;23.30;72.30
39925;DHT22;25592;49.986;11.618;2023-05-06T16:01:10;23.30;72.50
39925;DHT22;25592;49.986;11.618;2023-05-06T16:03:56;23.20;73.00
39925;DHT22;25592;49.986;11.618;2023-05-06T16:06:42;23.20;72.20
39925;DHT22;25592;49.986;11.618;2023-05-06T16:09:27;23.20;72.50
39925;DHT22;25592;49.986;11.618;2023-05-06T16:12:13;23.10;71.90
39925;DHT22;25592;49.986;11.618;2023-05-06T16:14:59;23.20;73.50
39925;DHT22;25592;49.986;11.618;2023-05-06T16:17:44;23.30;72.00
39925;DHT22;25592;49.986;11.618;2023-05-06T16:20:30;23.30;72.00
39925;DHT22;25592;49.986;11.618;2023-05-06T16:23:17;23.30;72.00
39925;DHT22;25592;49.986;11.618;2023-05-06T16:26:03;23.10;71.80
39925;DHT22;25592;49.986;11.618;2023-05-06T16:28:48;23.10;71.60
39925;DHT22;25592;49.986;11.618;2023-05-06T16:31:33;22.90;71.10
39925;DHT22;25592;49.986;11.618;2023-05-06T16:34:19;22.90;71.90
39925;DHT22;25592;49.986;11.618;2023-05-06T16:37:04;22.80;71.00
39925;DHT22;25592;49.986;11.618;2023-05-06T16:39:51;22.70;72.10
39925;DHT22;25592;49.986;11.618;2023-05-06T16:42:36;22.70;71.80
39925;DHT22;25592;49.986;11.618;2023-05-06T16:45:22;22.70;71.50
39925;DHT22;25592;49.986;11.618;2023-05-06T16:48:07;22.70;71.20
39925;DHT22;25592;49.986;11.618;2023-05-06T16:50:53;22.60;72.10
39925;DHT22;25592;49.986;11.618;2023-05-06T16:53:38;22.70;72.20
39925;DHT22;25592;49.986;11.618;2023-05-06T16:56:23;22.70;72.20
39925;DHT22;25592;49.986;11.618;2023-05-06T16:59:17;22.80;72.40
39925;DHT22;25592;49.986;11.618;2023-05-06T17:02:06;22.60;71.60
39925;DHT22;25592;49.986;11.618;2023-05-06T17:04:51;22.70;72.50
39925;DHT22;25592;49.986;11.618;2023-05-06T17:07:37;22.70;73.40
39925;DHT22;25592;49.986;11.618;2023-05-06T17:10:22;22.70;72.40
39925;DHT22;25592;49.986;11.618;2023-05-06T17:13:12;22.50;72.40
39925;DHT22;25592;49.986;11.618;2023-05-06T17:15:58;22.40;72.60
39925;DHT22;25592;49.986;11.618;2023-05-06T17:18:43;22.40;72.70
39925;DHT22;25592;49.986;11.618;2023-05-06T17:21:29;22.40;72.90
39925;DHT22;25592;49.986;11.618;2023-05-06T17:24:15;22.40;73.10
39925;DHT22;25592;49.986;11.618;2023-05-06T17:27:01;22.30;73.50
39925;DHT22;25592;49.986;11.618;2023-05-06T17:29:46;22.30;73.80
39925;DHT22;25592;49.986;11.618;2023-05-06T17:32:32;22.20;74.30